sensor_id;sensor_type;location;lat;lon;timestamp;temperature;humidity
49615;DHT22;35517;45.272;9.984;2022-08-03T00:00:46;28.50;53.40
49615;DHT22;35517;45.272;9.984;2022-08-03T00:03:12;28.50;53.40
49615;DHT22;35517;45.272;9.984;2022-08-03T00:05:39;28.50;53.40
49615;DHT22;35517;45.272;9.984;2022-08-03T00:08:05;28.40;53.40
49615;DHT22;35517;45.272;9.984;2022-08-03T00:10:31;28.40;53.50
49615;DHT22;35517;45.272;9.984;2022-08-03T00:12:58;28.40;53.60
49615;DHT22;35517;45.272;9.984;2022-08-03T00:15:24;28.40;54.20
49615;DHT22;35517;45.272;9.984;2022-08-03T00:17:50;28.40;53.80
49615;DHT22;35517;45.272;9.984;2022-08-03T00:20:17;28.30;53.80
49615;DHT22;35517;45.272;9.984;2022-08-03T00:22:44;28.30;53.90
49615;DHT22;35517;45.272;9.984;2022-08-03T00:25:10;28.30;54.00
49615;DHT22;35517;45.272;9.984;2022-08-03T00:27:36;28.30;54.00
49615;DHT22;35517;45.272;9.984;2022-08-03T00:30:03;28.30;54.10
49615;DHT22;35517;45.272;9.984;2022-08-03T00:32:30;28.20;54.10
49615;DHT22;35517;45.272;9.984;2022-08-03T00:34:56;28.20;54.20
49615;DHT22;35517;45.272;9.984;2022-08-03T00:37:23;28.20;54.30
49615;DHT22;35517;45.272;9.984;2022-08-03T00:39:49;28.20;54.30
49615;DHT22;35517;45.272;9.984;2022-08-03T00:42:15;28.20;54.30
49615;DHT22;35517;45.272;9.984;2022-08-03T00:44:43;28.20;54.30
49615;DHT22;35517;45.272;9.984;2022-08-03T00:47:10;28.20;54.30
49615;DHT22;35517;45.272;9.984;2022-08-03T00:49:38;28.10;54.30
49615;DHT22;35517;45.272;9.984;2022-08-03T00:52:08;28.10;54.30
49615;DHT22;35517;45.272;9.984;2022-08-03T00:54:38;28.10;54.30
49615;DHT22;35517;45.272;9.984;2022-08-03T00:57:06;28.10;54.40
49615;DHT22;35517;45.272;9.984;2022-08-03T00:59:32;28.00;54.60
49615;DHT22;35517;45.272;9.984;2022-08-03T01:01:59;28.00;54.90
49615;DHT22;35517;45.272;9.984;2022-08-03T01:04:26;28.00;55.10
49615;DHT22;35517;45.272;9.984;2022-08-03T01:09:37;28.00;55.40
49615;DHT22;35517;45.272;9.984;2022-08-03T01:17:24;27.90;55.70
49615;DHT22;35517;45.272;9.984;2022-08-03T01:20:02;27.80;55.60
49615;DHT22;35517;45.272;9.984;2022-08-03T01:22:50;27.80;55.50
49615;DHT22;35517;45.272;9.984;2022-08-03T01:30:34;27.80;55.30
49615;DHT22;35517;45.272;9.984;2022-08-03T01:33:05;27.80;55.30
49615;DHT22;35517;45.272;9.984;2022-08-03T01:35:35;27.70;55.30
49615;DHT22;35517;45.272;9.984;2022-08-03T01:38:13;27.70;55.30
49615;DHT22;35517;45.272;9.984;2022-08-03T01:40:41;27.70;55.40
49615;DHT22;35517;45.272;9.984;2022-08-03T01:43:12;27.70;55.40
49615;DHT22;35517;45.272;9.984;2022-08-03T01:45:40;27.70;55.50
49615;DHT22;35517;45.272;9.984;2022-08-03T01:48:11;27.70;55.60
49615;DHT22;35517;45.272;9.984;2022-08-03T01:50:41;27.70;55.70
49615;DHT22;35517;45.272;9.984;2022-08-03T01:53:09;27.70;55.60
49615;DHT22;35517;45.272;9.984;2022-08-03T01:55:36;27.60;55.60
49615;DHT22;35517;45.272;9.984;2022-08-03T01:58:04;27.60;55.70
49615;DHT22;35517;45.272;9.984;2022-08-03T02:00:32;27.60;55.80
49615;DHT22;35517;45.272;9.984;2022-08-03T02:03:01;27.60;55.90
49615;DHT22;35517;45.272;9.984;2022-08-03T02:05:30;27.60;55.90
49615;DHT22;35517;45.272;9.984;2022-08-03T02:07:57;27.60;56.00
49615;DHT22;35517;45.272;9.984;2022-08-03T02:10:26;27.50;56.00
49615;DHT22;35517;45.272;9.984;2022-08-03T02:12:54;27.50;56.20
49615;DHT22;35517;45.272;9.984;2022-08-03T02:15:21;27.50;56.30
49615;DHT22;35517;45.272;9.984;2022-08-03T02:17:48;27.40;56.30
49615;DHT22;35517;45.272;9.984;2022-08-03T02:20:15;27.40;56.40
49615;DHT22;35517;45.272;9.984;2022-08-03T02:22:43;27.40;56.60
49615;DHT22;35517;45.272;9.984;2022-08-03T02:25:14;27.30;56.80
49615;DHT22;35517;45.272;9.984;2022-08-03T02:28:07;27.30;56.80
49615;DHT22;35517;45.272;9.984;2022-08-03T02:30:38;27.30;56.90
49615;DHT22;35517;45.272;9.984;2022-08-03T02:33:13;27.30;56.90
49615;DHT22;35517;45.272;9.984;2022-08-03T02:35:42;27.30;57.00
49615;DHT22;35517;45.272;9.984;2022-08-03T02:38:10;27.20;57.00
49615;DHT22;35517;45.272;9.984;2022-08-03T02:40:39;27.20;57.10
49615;DHT22;35517;45.272;9.984;2022-08-03T02:43:07;27.20;57.20
49615;DHT22;35517;45.272;9.984;2022-08-03T02:45:41;27.20;57.30
49615;DHT22;35517;45.272;9.984;2022-08-03T02:48:08;27.10;57.30
49615;DHT22;35517;45.272;9.984;2022-08-03T02:50:37;27.10;57.40
49615;DHT22;35517;45.272;9.984;2022-08-03T02:53:05;27.10;57.50
49615;DHT22;35517;45.272;9.984;2022-08-03T02:55:34;27.10;57.60
49615;DHT22;35517;45.272;9.984;2022-08-03T02:58:01;27.10;57.70
49615;DHT22;35517;45.272;9.984;2022-08-03T03:00:30;27.10;57.70
49615;DHT22;35517;45.272;9.984;2022-08-03T03:02:59;27.10;57.70
49615;DHT22;35517;45.272;9.984;2022-08-03T03:05:27;27.10;57.80
49615;DHT22;35517;45.272;9.984;2022-08-03T03:07:54;27.10;57.90
49615;DHT22;35517;45.272;9.984;2022-08-03T03:10:22;27.20;57.90
49615;DHT22;35517;45.272;9.984;2022-08-03T03:12:53;27.10;57.80
49615;DHT22;35517;45.272;9.984;2022-08-03T03:15:21;27.10;57.80
49615;DHT22;35517;45.272;9.984;2022-08-03T03:17:49;27.10;57.80
49615;DHT22;35517;45.272;9.984;2022-08-03T03:20:17;27.10;57.70
49615;DHT22;35517;45.272;9.984;2022-08-03T03:22:46;27.10;57.60
49615;DHT22;35517;45.272;9.984;2022-08-03T03:25:13;27.10;57.50
49615;DHT22;35517;45.272;9.984;2022-08-03T03:27:40;27.10;57.60
49615;DHT22;35517;45.272;9.984;2022-08-03T03:30:07;27.10;57.70
49615;DHT22;35517;45.272;9.984;2022-08-03T03:32:34;27.10;57.80
49615;DHT22;35517;45.272;9.984;2022-08-03T03:35:02;27.00;57.80
49615;DHT22;35517;45.272;9.984;2022-08-03T03:37:29;27.00;57.90
49615;DHT22;35517;45.272;9.984;2022-08-03T03:39:55;27.00;58.00
49615;DHT22;35517;45.272;9.984;2022-08-03T03:42:22;27.00;58.20
49615;DHT22;35517;45.272;9.984;2022-08-03T03:44:50;27.00;58.20
49615;DHT22;35517;45.272;9.984;2022-08-03T03:47:16;27.00;58.20
49615;DHT22;35517;45.272;9.984;2022-08-03T03:49:44;27.00;58.60
49615;DHT22;35517;45.272;9.984;2022-08-03T03:52:10;27.00;58.90
49615;DHT22;35517;45.272;9.984;2022-08-03T03:54:41;27.00;59.00
49615;DHT22;35517;45.272;9.984;2022-08-03T03:57:08;27.00;59.00
49615;DHT22;35517;45.272;9.984;2022-08-03T03:59:41;26.90;59.00
49615;DHT22;35517;45.272;9.984;2022-08-03T04:02:08;27.00;58.90
49615;DHT22;35517;45.272;9.984;2022-08-03T04:04:35;26.90;58.80
49615;DHT22;35517;45.272;9.984;2022-08-03T04:07:23;26.90;58.80
49615;DHT22;35517;45.272;9.984;2022-08-03T04:10:22;26.90;58.80
49615;DHT22;35517;45.272;9.984;2022-08-03T04:13:09;26.90;58.70
49615;DHT22;35517;45.272;9.984;2022-08-03T04:15:38;26.90;58.90
49615;DHT22;35517;45.272;9.984;2022-08-03T04:18:08;26.90;59.00
49615;DHT22;35517;45.272;9.984;2022-08-03T04:20:36;26.90;59.10
49615;DHT22;35517;45.272;9.984;2022-08-03T04:23:04;26.90;59.20
49615;DHT22;35517;45.272;9.984;2022-08-03T04:25:33;26.90;59.30
49615;DHT22;35517;45.272;9.984;2022-08-03T04:28:01;26.90;59.30
49615;DHT22;35517;45.272;9.984;2022-08-03T04:30:29;26.90;59.30
49615;DHT22;35517;45.272;9.984;2022-08-03T04:32:57;26.90;59.50
49615;DHT22;35517;45.272;9.984;2022-08-03T04:35:24;26.90;59.50
49615;DHT22;35517;45.272;9.984;2022-08-03T04:37:54;26.90;59.30
49615;DHT22;35517;45.272;9.984;2022-08-03T04:40:30;26.90;59.10
49615;DHT22;35517;45.272;9.984;2022-08-03T04:42:58;26.90;59.00
49615;DHT22;35517;45.272;9.984;2022-08-03T04:45:26;26.90;59.00
49615;DHT22;35517;45.272;9.984;2022-08-03T04:47:53;26.90;59.00
49615;DHT22;35517;45.272;9.984;2022-08-03T04:50:20;26.90;59.20
49615;DHT22;35517;45.272;9.984;2022-08-03T04:53:04;27.00;59.50
49615;DHT22;35517;45.272;9.984;2022-08-03T04:55:32;27.10;59.60
49615;DHT22;35517;45.272;9.984;2022-08-03T04:57:59;27.20;59.90
49615;DHT22;35517;45.272;9.984;2022-08-03T05:00:26;27.50;59.90
49615;DHT22;35517;45.272;9.984;2022-08-03T05:02:53;27.70;59.30
49615;DHT22;35517;45.272;9.984;2022-08-03T05:05:19;28.10;58.60
49615;DHT22;35517;45.272;9.984;2022-08-03T05:07:46;28.40;57.90
49615;DHT22;35517;45.272;9.984;2022-08-03T05:10:13;28.70;57.10
49615;DHT22;35517;45.272;9.984;2022-08-03T05:12:39;29.10;56.40
49615;DHT22;35517;45.272;9.984;2022-08-03T05:15:06;29.40;55.70
49615;DHT22;35517;45.272;9.984;2022-08-03T05:17:33;29.70;54.80
49615;DHT22;35517;45.272;9.984;2022-08-03T05:19:59;30.10;53.80
49615;DHT22;35517;45.272;9.984;2022-08-03T05:22:26;30.40;52.80
49615;DHT22;35517;45.272;9.984;2022-08-03T05:24:52;30.70;52.00
49615;DHT22;35517;45.272;9.984;2022-08-03T05:27:18;30.90;51.30
49615;DHT22;35517;45.272;9.984;2022-08-03T05:29:46;31.00;50.70
49615;DHT22;35517;45.272;9.984;2022-08-03T05:32:12;31.00;50.40
49615;DHT22;35517;45.272;9.984;2022-08-03T05:34:39;30.90;50.30
49615;DHT22;35517;45.272;9.984;2022-08-03T05:37:05;30.80;50.50
49615;DHT22;35517;45.272;9.984;2022-08-03T05:39:33;30.70;50.80
49615;DHT22;35517;45.272;9.984;2022-08-03T05:41:59;30.80;51.00
49615;DHT22;35517;45.272;9.984;2022-08-03T05:44:26;30.90;50.90
49615;DHT22;35517;45.272;9.984;2022-08-03T05:46:52;31.20;50.70
49615;DHT22;35517;45.272;9.984;2022-08-03T05:49:18;31.50;50.70
49615;DHT22;35517;45.272;9.984;2022-08-03T05:51:45;31.80;50.30
49615;DHT22;35517;45.272;9.984;2022-08-03T05:54:11;32.20;49.40
49615;DHT22;35517;45.272;9.984;2022-08-03T05:56:38;32.40;48.80
49615;DHT22;35517;45.272;9.984;2022-08-03T05:59:06;32.80;48.40
49615;DHT22;35517;45.272;9.984;2022-08-03T06:01:32;33.10;48.00
49615;DHT22;35517;45.272;9.984;2022-08-03T06:03:58;33.50;47.50
49615;DHT22;35517;45.272;9.984;2022-08-03T06:06:25;33.80;46.80
49615;DHT22;35517;45.272;9.984;2022-08-03T06:08:51;34.00;46.50
49615;DHT22;35517;45.272;9.984;2022-08-03T06:11:17;34.30;46.00
49615;DHT22;35517;45.272;9.984;2022-08-03T06:13:44;34.50;45.60
49615;DHT22;35517;45.272;9.984;2022-08-03T06:16:10;34.70;45.30
49615;DHT22;35517;45.272;9.984;2022-08-03T06:18:37;34.90;45.10
49615;DHT22;35517;45.272;9.984;2022-08-03T06:21:04;35.30;44.60
49615;DHT22;35517;45.272;9.984;2022-08-03T06:23:30;35.60;43.80
49615;DHT22;35517;45.272;9.984;2022-08-03T06:25:56;35.80;43.60
49615;DHT22;35517;45.272;9.984;2022-08-03T06:28:23;36.10;43.40
49615;DHT22;35517;45.272;9.984;2022-08-03T06:30:49;36.40;42.50
49615;DHT22;35517;45.272;9.984;2022-08-03T06:33:16;36.60;42.20
49615;DHT22;35517;45.272;9.984;2022-08-03T06:35:42;36.90;41.80
49615;DHT22;35517;45.272;9.984;2022-08-03T06:38:09;37.20;41.70
49615;DHT22;35517;45.272;9.984;2022-08-03T06:40:36;37.30;41.60
49615;DHT22;35517;45.272;9.984;2022-08-03T06:43:05;37.50;41.50
49615;DHT22;35517;45.272;9.984;2022-08-03T06:45:32;37.80;41.30
49615;DHT22;35517;45.272;9.984;2022-08-03T06:48:10;38.00;40.70
49615;DHT22;35517;45.272;9.984;2022-08-03T06:50:39;38.20;40.20
49615;DHT22;35517;45.272;9.984;2022-08-03T06:53:06;38.30;39.20
49615;DHT22;35517;45.272;9.984;2022-08-03T06:55:34;38.40;38.60
49615;DHT22;35517;45.272;9.984;2022-08-03T06:58:01;38.40;38.20
49615;DHT22;35517;45.272;9.984;2022-08-03T07:00:27;38.50;38.40
49615;DHT22;35517;45.272;9.984;2022-08-03T07:02:53;38.50;38.50
49615;DHT22;35517;45.272;9.984;2022-08-03T07:05:20;38.60;38.70
49615;DHT22;35517;45.272;9.984;2022-08-03T07:07:46;38.70;38.20
49615;DHT22;35517;45.272;9.984;2022-08-03T07:10:12;38.80;38.20
49615;DHT22;35517;45.272;9.984;2022-08-03T07:12:39;38.90;37.90
49615;DHT22;35517;45.272;9.984;2022-08-03T07:15:07;39.10;37.30
49615;DHT22;35517;45.272;9.984;2022-08-03T07:17:35;39.10;37.50
49615;DHT22;35517;45.272;9.984;2022-08-03T07:20:04;39.10;37.30
49615;DHT22;35517;45.272;9.984;2022-08-03T07:22:31;39.10;37.20
49615;DHT22;35517;45.272;9.984;2022-08-03T07:24:58;39.10;37.70
49615;DHT22;35517;45.272;9.984;2022-08-03T07:27:25;39.00;38.00
49615;DHT22;35517;45.272;9.984;2022-08-03T07:29:56;38.90;38.20
49615;DHT22;35517;45.272;9.984;2022-08-03T07:32:23;38.70;37.50
49615;DHT22;35517;45.272;9.984;2022-08-03T07:34:49;38.60;39.20
49615;DHT22;35517;45.272;9.984;2022-08-03T07:37:16;38.50;39.80
49615;DHT22;35517;45.272;9.984;2022-08-03T07:39:42;38.40;40.50
49615;DHT22;35517;45.272;9.984;2022-08-03T07:42:08;38.20;41.10
49615;DHT22;35517;45.272;9.984;2022-08-03T07:44:35;38.10;41.50
49615;DHT22;35517;45.272;9.984;2022-08-03T07:47:02;37.90;41.20
49615;DHT22;35517;45.272;9.984;2022-08-03T07:49:28;37.70;41.80
49615;DHT22;35517;45.272;9.984;2022-08-03T07:51:54;37.60;42.10
49615;DHT22;35517;45.272;9.984;2022-08-03T07:54:39;37.40;42.40
49615;DHT22;35517;45.272;9.984;2022-08-03T07:57:05;37.20;42.90
49615;DHT22;35517;45.272;9.984;2022-08-03T07:59:31;37.10;42.90
49615;DHT22;35517;45.272;9.984;2022-08-03T08:02:00;36.90;43.50
49615;DHT22;35517;45.272;9.984;2022-08-03T08:04:26;36.90;43.70
49615;DHT22;35517;45.272;9.984;2022-08-03T08:06:52;36.80;43.90
49615;DHT22;35517;45.272;9.984;2022-08-03T08:09:19;36.70;44.30
49615;DHT22;35517;45.272;9.984;2022-08-03T08:11:45;36.60;44.70
49615;DHT22;35517;45.272;9.984;2022-08-03T08:14:11;36.50;44.70
49615;DHT22;35517;45.272;9.984;2022-08-03T08:16:38;36.50;44.10
49615;DHT22;35517;45.272;9.984;2022-08-03T08:19:04;36.50;43.80
49615;DHT22;35517;45.272;9.984;2022-08-03T08:21:31;36.60;43.70
49615;DHT22;35517;45.272;9.984;2022-08-03T08:23:57;36.60;43.50
49615;DHT22;35517;45.272;9.984;2022-08-03T08:26:23;36.80;43.50
49615;DHT22;35517;45.272;9.984;2022-08-03T08:28:50;37.00;43.40
49615;DHT22;35517;45.272;9.984;2022-08-03T08:31:18;37.20;43.50
49615;DHT22;35517;45.272;9.984;2022-08-03T08:33:44;37.60;43.30
49615;DHT22;35517;45.272;9.984;2022-08-03T08:36:10;37.80;43.00
49615;DHT22;35517;45.272;9.984;2022-08-03T08:38:37;38.20;43.00
49615;DHT22;35517;45.272;9.984;2022-08-03T08:41:03;38.50;42.40
49615;DHT22;35517;45.272;9.984;2022-08-03T08:43:30;38.80;42.00
49615;DHT22;35517;45.272;9.984;2022-08-03T08:45:58;39.10;41.60
49615;DHT22;35517;45.272;9.984;2022-08-03T08:48:25;39.40;41.10
49615;DHT22;35517;45.272;9.984;2022-08-03T08:50:54;39.70;41.50
49615;DHT22;35517;45.272;9.984;2022-08-03T08:53:25;40.00;42.10
49615;DHT22;35517;45.272;9.984;2022-08-03T08:55:54;40.30;41.20
49615;DHT22;35517;45.272;9.984;2022-08-03T08:58:23;40.50;40.70
49615;DHT22;35517;45.272;9.984;2022-08-03T09:00:51;40.60;40.60
49615;DHT22;35517;45.272;9.984;2022-08-03T09:03:17;40.70;40.10
49615;DHT22;35517;45.272;9.984;2022-08-03T09:05:44;40.90;40.30
49615;DHT22;35517;45.272;9.984;2022-08-03T09:08:10;41.00;40.00
49615;DHT22;35517;45.272;9.984;2022-08-03T09:10:36;41.20;40.20
49615;DHT22;35517;45.272;9.984;2022-08-03T09:13:03;41.40;39.80
49615;DHT22;35517;45.272;9.984;2022-08-03T09:15:31;41.40;39.50
49615;DHT22;35517;45.272;9.984;2022-08-03T09:17:59;41.60;39.40
49615;DHT22;35517;45.272;9.984;2022-08-03T09:20:29;41.70;39.30
49615;DHT22;35517;45.272;9.984;2022-08-03T09:22:59;41.80;39.50
49615;DHT22;35517;45.272;9.984;2022-08-03T09:28:10;42.10;39.20
49615;DHT22;35517;45.272;9.984;2022-08-03T09:30:41;42.20;39.00
49615;DHT22;35517;45.272;9.984;2022-08-03T09:33:10;42.30;38.90
49615;DHT22;35517;45.272;9.984;2022-08-03T09:35:46;42.30;39.30
49615;DHT22;35517;45.272;9.984;2022-08-03T09:38:19;42.40;38.60
49615;DHT22;35517;45.272;9.984;2022-08-03T09:40:51;42.40;39.10
49615;DHT22;35517;45.272;9.984;2022-08-03T09:43:19;42.50;39.40
49615;DHT22;35517;45.272;9.984;2022-08-03T09:45:45;42.60;39.50
49615;DHT22;35517;45.272;9.984;2022-08-03T09:48:29;42.50;39.40
49615;DHT22;35517;45.272;9.984;2022-08-03T09:50:57;42.40;39.40
49615;DHT22;35517;45.272;9.984;2022-08-03T09:53:23;42.50;39.70
49615;DHT22;35517;45.272;9.984;2022-08-03T09:55:54;42.50;40.00
49615;DHT22;35517;45.272;9.984;2022-08-03T09:58:23;42.70;40.20
49615;DHT22;35517;45.272;9.984;2022-08-03T10:03:27;42.80;39.50
49615;DHT22;35517;45.272;9.984;2022-08-03T10:05:54;42.80;39.70
49615;DHT22;35517;45.272;9.984;2022-08-03T10:08:21;43.00;39.50
49615;DHT22;35517;45.272;9.984;2022-08-03T10:10:50;43.00;39.50
49615;DHT22;35517;45.272;9.984;2022-08-03T10:13:20;43.00;39.40
49615;DHT22;35517;45.272;9.984;2022-08-03T10:15:47;43.10;39.70
49615;DHT22;35517;45.272;9.984;2022-08-03T10:18:14;43.00;39.60
49615;DHT22;35517;45.272;9.984;2022-08-03T10:20:44;42.90;39.40
49615;DHT22;35517;45.272;9.984;2022-08-03T10:23:13;42.80;39.80
49615;DHT22;35517;45.272;9.984;2022-08-03T10:25:43;42.80;40.10
49615;DHT22;35517;45.272;9.984;2022-08-03T10:28:14;42.80;40.00
49615;DHT22;35517;45.272;9.984;2022-08-03T10:30:46;42.60;39.70
49615;DHT22;35517;45.272;9.984;2022-08-03T10:33:23;42.60;40.10
49615;DHT22;35517;45.272;9.984;2022-08-03T10:35:52;42.60;39.60
49615;DHT22;35517;45.272;9.984;2022-08-03T10:38:25;42.60;40.10
49615;DHT22;35517;45.272;9.984;2022-08-03T10:40:55;42.80;40.50
49615;DHT22;35517;45.272;9.984;2022-08-03T10:43:27;42.70;40.30
49615;DHT22;35517;45.272;9.984;2022-08-03T10:45:59;42.70;40.30
49615;DHT22;35517;45.272;9.984;2022-08-03T10:48:28;42.70;40.30
49615;DHT22;35517;45.272;9.984;2022-08-03T10:50:55;42.70;40.50
49615;DHT22;35517;45.272;9.984;2022-08-03T10:53:38;42.70;40.80
49615;DHT22;35517;45.272;9.984;2022-08-03T10:56:05;42.70;40.50
49615;DHT22;35517;45.272;9.984;2022-08-03T10:59:10;42.40;41.00
49615;DHT22;35517;45.272;9.984;2022-08-03T11:01:55;42.20;41.20
49615;DHT22;35517;45.272;9.984;2022-08-03T11:04:23;41.90;41.60
49615;DHT22;35517;45.272;9.984;2022-08-03T11:09:43;41.40;42.40
49615;DHT22;35517;45.272;9.984;2022-08-03T11:12:31;41.10;42.60
49615;DHT22;35517;45.272;9.984;2022-08-03T11:15:06;40.80;43.20
49615;DHT22;35517;45.272;9.984;2022-08-03T11:17:35;40.50;43.80
49615;DHT22;35517;45.272;9.984;2022-08-03T11:20:01;40.30;44.00
49615;DHT22;35517;45.272;9.984;2022-08-03T11:22:49;40.10;44.30
49615;DHT22;35517;45.272;9.984;2022-08-03T11:25:19;39.90;44.70
49615;DHT22;35517;45.272;9.984;2022-08-03T11:27:45;39.60;44.80
49615;DHT22;35517;45.272;9.984;2022-08-03T11:35:15;39.10;45.30
49615;DHT22;35517;45.272;9.984;2022-08-03T11:40:45;38.80;45.50
49615;DHT22;35517;45.272;9.984;2022-08-03T11:46:04;38.50;46.00
49615;DHT22;35517;45.272;9.984;2022-08-03T11:48:40;38.40;46.00
49615;DHT22;35517;45.272;9.984;2022-08-03T11:51:27;38.30;45.90
49615;DHT22;35517;45.272;9.984;2022-08-03T11:54:03;38.20;46.10
49615;DHT22;35517;45.272;9.984;2022-08-03T11:56:47;38.10;46.40
49615;DHT22;35517;45.272;9.984;2022-08-03T11:59:14;38.00;46.20
49615;DHT22;35517;45.272;9.984;2022-08-03T12:01:42;37.80;46.20
49615;DHT22;35517;45.272;9.984;2022-08-03T12:04:08;37.70;46.90
49615;DHT22;35517;45.272;9.984;2022-08-03T12:06:36;37.60;46.70
49615;DHT22;35517;45.272;9.984;2022-08-03T12:09:21;37.50;46.80
49615;DHT22;35517;45.272;9.984;2022-08-03T12:11:49;37.50;46.80
49615;DHT22;35517;45.272;9.984;2022-08-03T12:14:17;37.40;46.60
49615;DHT22;35517;45.272;9.984;2022-08-03T12:16:47;37.30;46.60
49615;DHT22;35517;45.272;9.984;2022-08-03T12:19:14;37.30;47.00
49615;DHT22;35517;45.272;9.984;2022-08-03T12:21:47;37.40;47.90
49615;DHT22;35517;45.272;9.984;2022-08-03T12:24:15;37.20;46.80
49615;DHT22;35517;45.272;9.984;2022-08-03T12:26:47;37.20;44.60
49615;DHT22;35517;45.272;9.984;2022-08-03T12:29:18;37.10;45.80
49615;DHT22;35517;45.272;9.984;2022-08-03T12:31:45;37.10;44.80
49615;DHT22;35517;45.272;9.984;2022-08-03T12:34:12;37.00;45.10
49615;DHT22;35517;45.272;9.984;2022-08-03T12:36:53;37.00;46.50
49615;DHT22;35517;45.272;9.984;2022-08-03T12:39:23;36.80;45.90
49615;DHT22;35517;45.272;9.984;2022-08-03T12:41:54;36.80;46.00
49615;DHT22;35517;45.272;9.984;2022-08-03T12:44:31;36.80;46.80
49615;DHT22;35517;45.272;9.984;2022-08-03T12:46:59;36.70;46.50
49615;DHT22;35517;45.272;9.984;2022-08-03T12:49:26;36.80;45.90
49615;DHT22;35517;45.272;9.984;2022-08-03T12:51:57;36.70;45.70
49615;DHT22;35517;45.272;9.984;2022-08-03T12:54:27;36.60;45.60
49615;DHT22;35517;45.272;9.984;2022-08-03T12:57:02;36.60;46.40
49615;DHT22;35517;45.272;9.984;2022-08-03T12:59:33;36.50;44.90
49615;DHT22;35517;45.272;9.984;2022-08-03T13:02:00;36.50;45.20
49615;DHT22;35517;45.272;9.984;2022-08-03T13:04:28;36.50;46.30
49615;DHT22;35517;45.272;9.984;2022-08-03T13:07:00;36.50;46.10
49615;DHT22;35517;45.272;9.984;2022-08-03T13:09:27;36.50;46.00
49615;DHT22;35517;45.272;9.984;2022-08-03T13:12:07;36.50;45.90
49615;DHT22;35517;45.272;9.984;2022-08-03T13:14:35;36.40;46.10
49615;DHT22;35517;45.272;9.984;2022-08-03T13:17:03;36.40;46.50
49615;DHT22;35517;45.272;9.984;2022-08-03T13:19:33;36.30;46.50
49615;DHT22;35517;45.272;9.984;2022-08-03T13:21:59;36.40;46.30
49615;DHT22;35517;45.272;9.984;2022-08-03T13:24:28;36.30;46.10
49615;DHT22;35517;45.272;9.984;2022-08-03T13:26:55;36.40;46.90
49615;DHT22;35517;45.272;9.984;2022-08-03T13:29:21;36.20;46.50
49615;DHT22;35517;45.272;9.984;2022-08-03T13:31:47;36.20;47.00
49615;DHT22;35517;45.272;9.984;2022-08-03T13:34:13;36.20;47.40
49615;DHT22;35517;45.272;9.984;2022-08-03T13:36:40;36.10;47.40
49615;DHT22;35517;45.272;9.984;2022-08-03T13:39:06;36.10;47.40
49615;DHT22;35517;45.272;9.984;2022-08-03T13:41:32;36.10;47.20
49615;DHT22;35517;45.272;9.984;2022-08-03T13:43:59;36.10;46.90
49615;DHT22;35517;45.272;9.984;2022-08-03T13:46:25;36.10;46.80
49615;DHT22;35517;45.272;9.984;2022-08-03T13:48:52;36.10;46.70
49615;DHT22;35517;45.272;9.984;2022-08-03T13:51:19;36.00;46.80
49615;DHT22;35517;45.272;9.984;2022-08-03T13:53:45;36.00;47.00
49615;DHT22;35517;45.272;9.984;2022-08-03T13:56:11;36.10;46.70
49615;DHT22;35517;45.272;9.984;2022-08-03T13:58:38;36.10;46.50
49615;DHT22;35517;45.272;9.984;2022-08-03T14:01:05;36.00;46.40
49615;DHT22;35517;45.272;9.984;2022-08-03T14:03:31;36.00;47.10
49615;DHT22;35517;45.272;9.984;2022-08-03T14:05:57;35.90;46.70
49615;DHT22;35517;45.272;9.984;2022-08-03T14:08:24;35.90;46.40
49615;DHT22;35517;45.272;9.984;2022-08-03T14:10:50;36.00;46.90
49615;DHT22;35517;45.272;9.984;2022-08-03T14:13:16;35.90;47.40
49615;DHT22;35517;45.272;9.984;2022-08-03T14:15:43;35.90;47.80
49615;DHT22;35517;45.272;9.984;2022-08-03T14:18:09;35.80;47.70
49615;DHT22;35517;45.272;9.984;2022-08-03T14:20:36;35.90;47.70
49615;DHT22;35517;45.272;9.984;2022-08-03T14:23:02;35.90;47.50
49615;DHT22;35517;45.272;9.984;2022-08-03T14:25:28;35.80;47.10
49615;DHT22;35517;45.272;9.984;2022-08-03T14:27:56;35.80;47.00
49615;DHT22;35517;45.272;9.984;2022-08-03T14:30:22;35.80;47.10
49615;DHT22;35517;45.272;9.984;2022-08-03T14:32:48;35.80;47.30
49615;DHT22;35517;45.272;9.984;2022-08-03T14:35:15;35.80;47.50
49615;DHT22;35517;45.272;9.984;2022-08-03T14:37:41;35.80;48.00
49615;DHT22;35517;45.272;9.984;2022-08-03T14:40:08;35.80;48.40
49615;DHT22;35517;45.272;9.984;2022-08-03T14:42:35;35.70;48.00
49615;DHT22;35517;45.272;9.984;2022-08-03T14:45:02;35.70;48.00
49615;DHT22;35517;45.272;9.984;2022-08-03T14:47:29;35.70;48.20
49615;DHT22;35517;45.272;9.984;2022-08-03T14:49:55;35.60;48.40
49615;DHT22;35517;45.272;9.984;2022-08-03T14:52:22;35.60;48.10
49615;DHT22;35517;45.272;9.984;2022-08-03T14:54:48;35.60;47.90
49615;DHT22;35517;45.272;9.984;2022-08-03T14:57:14;35.70;48.30
49615;DHT22;35517;45.272;9.984;2022-08-03T14:59:40;35.60;48.60
49615;DHT22;35517;45.272;9.984;2022-08-03T15:02:07;35.60;48.40
49615;DHT22;35517;45.272;9.984;2022-08-03T15:04:33;35.60;47.80
49615;DHT22;35517;45.272;9.984;2022-08-03T15:06:59;35.60;47.70
49615;DHT22;35517;45.272;9.984;2022-08-03T15:09:26;35.60;48.30
49615;DHT22;35517;45.272;9.984;2022-08-03T15:11:53;35.60;48.30
49615;DHT22;35517;45.272;9.984;2022-08-03T15:14:19;35.50;48.10
49615;DHT22;35517;45.272;9.984;2022-08-03T15:16:45;35.60;48.20
49615;DHT22;35517;45.272;9.984;2022-08-03T15:19:12;35.50;48.00
49615;DHT22;35517;45.272;9.984;2022-08-03T15:21:38;35.60;47.80
49615;DHT22;35517;45.272;9.984;2022-08-03T15:24:04;35.50;48.70
49615;DHT22;35517;45.272;9.984;2022-08-03T15:26:31;35.50;48.20
49615;DHT22;35517;45.272;9.984;2022-08-03T15:28:57;35.50;48.40
49615;DHT22;35517;45.272;9.984;2022-08-03T15:31:24;35.50;48.60
49615;DHT22;35517;45.272;9.984;2022-08-03T15:33:50;35.50;48.70
49615;DHT22;35517;45.272;9.984;2022-08-03T15:36:17;35.50;48.70
49615;DHT22;35517;45.272;9.984;2022-08-03T15:38:44;35.50;48.50
49615;DHT22;35517;45.272;9.984;2022-08-03T15:41:12;35.50;48.40
49615;DHT22;35517;45.272;9.984;2022-08-03T15:43:40;35.50;48.20
49615;DHT22;35517;45.272;9.984;2022-08-03T15:46:06;35.50;48.20
49615;DHT22;35517;45.272;9.984;2022-08-03T15:48:33;35.40;48.40
49615;DHT22;35517;45.272;9.984;2022-08-03T15:50:59;35.50;48.30
49615;DHT22;35517;45.272;9.984;2022-08-03T15:53:26;35.40;48.30
49615;DHT22;35517;45.272;9.984;2022-08-03T15:55:52;35.40;48.10
49615;DHT22;35517;45.272;9.984;2022-08-03T15:58:18;35.40;48.30
49615;DHT22;35517;45.272;9.984;2022-08-03T16:00:45;35.40;48.50
49615;DHT22;35517;45.272;9.984;2022-08-03T16:03:11;35.40;48.50
49615;DHT22;35517;45.272;9.984;2022-08-03T16:05:37;35.50;48.50
49615;DHT22;35517;45.272;9.984;2022-08-03T16:08:04;35.40;48.80
49615;DHT22;35517;45.272;9.984;2022-08-03T16:10:31;35.40;48.60